Time;durP1;ratioP1;P1;durP2;ratioP2;P2;SDS_P1;SDS_P2;PMS_P1;PMS_P2;Temp;Humidity;BMP_temperature;BMP_pressure;BME280_temperature;BME280_humidity;BME280_pressure;Samples;Min_cycle;Max_cycle;Signal;HPM_P1;HPM_P2
2023/06/07 00:00:22;;;;;;;;;19.80;15.00;;;;;;;;1996994;28;3547093;-76
2023/06/07 00:01:36;;;;;;;;;18.29;14.71;;;;;;;;1993146;28;3536744;-75
2023/06/07 00:02:47;;;;;;;;;17.00;13.00;;;;;;;;1972026;28;3548191;-76
2023/06/07 00:04:02;;;;;;;;;27.00;17.20;;;;;;;;2001325;28;3591847;-76
2023/06/07 00:05:12;;;;;;;;;15.50;12.00;;;;;;;;1954966;28;2791915;-76
2023/06/07 00:06:24;;;;;;;;;17.00;16.00;;;;;;;;1968340;28;3569380;-76
2023/06/07 00:07:37;;;;;;;;;14.29;13.57;;;;;;;;1998068;28;3518324;-75
2023/06/07 00:08:49;;;;;;;;;15.80;15.00;;;;;;;;2004839;28;3526245;-75
2023/06/07 00:10:02;;;;;;;;;14.00;12.00;;;;;;;;1977157;28;2800353;-76
2023/06/07 00:11:13;;;;;;;;;20.50;14.00;;;;;;;;1977114;28;2802383;-76
2023/06/07 00:12:24;;;;;;;;;17.20;15.20;;;;;;;;1979360;28;3540843;-76
2023/06/07 00:13:35;;;;;;;;;12.50;9.00;;;;;;;;1995800;28;2764873;-75
2023/06/07 00:14:47;;;;;;;;;16.20;15.40;;;;;;;;1999599;28;3539816;-76
2023/06/07 00:15:59;;;;;;;;;14.50;11.33;;;;;;;;2000897;28;2803400;-76
2023/06/07 00:17:12;;;;;;;;;18.86;13.43;;;;;;;;1975509;28;3540815;-76
2023/06/07 00:18:24;;;;;;;;;18.00;15.67;;;;;;;;1990837;28;3556484;-76
2023/06/07 00:19:36;;;;;;;;;15.60;14.40;;;;;;;;1984444;28;3522102;-76
2023/06/07 00:20:49;;;;;;;;;17.80;16.20;;;;;;;;1996999;28;3548150;-76
2023/06/07 00:22:01;;;;;;;;;19.33;17.00;;;;;;;;1969105;28;3550643;-76
2023/06/07 00:23:13;;;;;;;;;14.50;14.50;;;;;;;;1979366;28;2818016;-76
2023/06/07 00:24:23;;;;;;;;;14.50;10.00;;;;;;;;1977211;28;2784638;-75
2023/06/07 00:25:35;;;;;;;;;17.20;16.20;;;;;;;;1980988;28;3531453;-75
2023/06/07 00:26:47;;;;;;;;;15.00;14.60;;;;;;;;2000427;28;3531473;-76
2023/06/07 00:28:00;;;;;;;;;16.43;13.57;;;;;;;;1998481;28;3528355;-76
2023/06/07 00:29:14;;;;;;;;;17.60;15.60;;;;;;;;2002864;28;3550190;-76
2023/06/07 00:30:25;;;;;;;;;17.00;15.00;;;;;;;;1975392;28;3554389;-76
2023/06/07 00:31:37;;;;;;;;;17.20;14.60;;;;;;;;2004230;28;3537737;-75
2023/06/07 00:32:50;;;;;;;;;15.71;14.86;;;;;;;;1998914;28;2811808;-76
2023/06/07 00:34:01;;;;;;;;;19.67;18.67;;;;;;;;1976925;28;3579397;-77
2023/06/07 00:35:13;;;;;;;;;16.40;14.00;;;;;;;;1993294;28;3527318;-76
2023/06/07 00:36:25;;;;;;;;;18.20;16.00;;;;;;;;1979155;28;3563775;-76
2023/06/07 00:37:37;;;;;;;;;18.00;14.80;;;;;;;;2002772;28;3547077;-76
2023/06/07 00:38:50;;;;;;;;;20.57;17.57;;;;;;;;1994929;28;3565874;-75
2023/06/07 00:40:01;;;;;;;;;17.60;15.20;;;;;;;;1956072;28;3554426;-76
2023/06/07 00:41:14;;;;;;;;;21.29;18.43;;;;;;;;1996515;28;3568999;-76
2023/06/07 00:42:26;;;;;;;;;15.80;14.60;;;;;;;;1973954;28;3536689;-76
2023/06/07 00:43:39;;;;;;;;;12.43;12.43;;;;;;;;1994980;28;2794006;-76
2023/06/07 00:44:50;;;;;;;;;17.50;16.50;;;;;;;;1970152;28;2833675;-76
2023/06/07 00:46:01;;;;;;;;;12.00;10.50;;;;;;;;1980467;28;2791950;-76
2023/06/07 00:47:12;;;;;;;;;16.00;14.00;;;;;;;;1965836;28;2813794;-76
2023/06/07 00:48:23;;;;;;;;;16.00;16.00;;;;;;;;1972029;28;2815864;-76
2023/06/07 00:49:35;;;;;;;;;19.00;16.67;;;;;;;;1973335;28;3563902;-76
2023/06/07 00:50:47;;;;;;;;;13.14;12.14;;;;;;;;1990067;28;3517956;-76
2023/06/07 00:52:00;;;;;;;;;17.29;15.57;;;;;;;;1992116;28;3545041;-76
2023/06/07 00:53:12;;;;;;;;;22.20;17.60;;;;;;;;2004572;28;3571030;-76
2023/06/07 00:54:24;;;;;;;;;17.80;16.00;;;;;;;;2009487;28;3556440;-77
2023/06/07 00:55:37;;;;;;;;;16.00;13.14;;;;;;;;1997842;28;3528367;-76
2023/06/07 00:56:50;;;;;;;;;17.67;15.33;;;;;;;;1979594;28;3548182;-76
2023/06/07 00:58:00;;;;;;;;;16.00;13.00;;;;;;;;1979801;28;2789851;-76
2023/06/07 00:59:12;;;;;;;;;15.60;13.60;;;;;;;;2003756;28;2812815;-76
2023/06/07 01:00:22;;;;;;;;;10.00;8.50;;;;;;;;1982990;28;2771094;-76
2023/06/07 01:01:34;;;;;;;;;18.80;16.60;;;;;;;;1973255;28;3568955;-76
2023/06/07 01:02:46;;;;;;;;;16.00;13.00;;;;;;;;2005229;28;3522086;-75
2023/06/07 01:03:58;;;;;;;;;21.67;15.00;;;;;;;;1992274;28;3531581;-76
2023/06/07 01:05:11;;;;;;;;;22.20;16.60;;;;;;;;2001881;28;3564802;-76
2023/06/07 01:06:22;;;;;;;;;20.00;18.33;;;;;;;;1987769;28;2828855;-76
2023/06/07 01:07:33;;;;;;;;;14.00;13.00;;;;;;;;1973805;28;2785681;-76
2023/06/07 01:08:44;;;;;;;;;17.00;14.00;;;;;;;;1962986;28;3539224;-76
2023/06/07 01:09:56;;;;;;;;;18.80;16.00;;;;;;;;2012822;28;3573258;-76
2023/06/07 01:11:10;;;;;;;;;19.57;15.86;;;;;;;;1997567;28;3528737;-76
2023/06/07 01:12:22;;;;;;;;;22.50;15.50;;;;;;;;1979314;28;2835683;-76
2023/06/07 01:13:33;;;;;;;;;19.00;16.00;;;;;;;;1954302;28;2828387;-76
2023/06/07 01:14:45;;;;;;;;;21.20;15.60;;;;;;;;1964223;28;3566983;-76
2023/06/07 01:15:57;;;;;;;;;15.67;14.33;;;;;;;;1981854;28;2804887;-76
2023/06/07 01:17:08;;;;;;;;;18.67;15.67;;;;;;;;1976316;28;2819004;-75
2023/06/07 01:18:19;;;;;;;;;22.33;17.00;;;;;;;;1975898;28;3557562;-76
2023/06/07 01:19:34;;;;;;;;;21.40;15.80;;;;;;;;1998128;28;3556467;-76
2023/06/07 01:20:50;;;;;;;;;16.50;15.00;;;;;;;;1969065;28;2801269;-76
2023/06/07 01:22:08;;;;;;;;;17.50;14.50;;;;;;;;1947737;28;2827350;-76
2023/06/07 01:23:27;;;;;;;;;14.50;14.50;;;;;;;;1955739;28;2808636;-76
2023/06/07 01:24:39;;;;;;;;;21.00;16.00;;;;;;;;1985613;28;2829497;-76
2023/06/07 01:25:50;;;;;;;;;15.33;14.67;;;;;;;;1983623;28;2802332;-76
2023/06/07 01:27:02;;;;;;;;;15.50;13.50;;;;;;;;1985609;28;2793327;-76
2023/06/07 01:28:14;;;;;;;;;15.50;13.00;;;;;;;;1985916;28;2809618;-76
2023/06/07 01:29:25;;;;;;;;;18.00;15.50;;;;;;;;1953552;28;2831509;-76
2023/06/07 01:30:36;;;;;;;;;15.00;14.50;;;;;;;;1954507;28;2812782;-76
2023/06/07 01:31:49;;;;;;;;;16.00;15.40;;;;;;;;1972817;28;3546032;-76
2023/06/07 01:33:02;;;;;;;;;19.67;10.67;;;;;;;;1972649;28;3559561;-76
2023/06/07 01:34:14;;;;;;;;;21.67;17.00;;;;;;;;1980765;28;2833563;-76
2023/06/07 01:35:26;;;;;;;;;15.50;14.00;;;;;;;;1977491;28;2816886;-76
2023/06/07 01:36:38;;;;;;;;;23.60;16.40;;;;;;;;1953807;28;3579383;-76
2023/06/07 01:37:50;;;;;;;;;16.33;14.00;;;;;;;;1949038;28;3537770;-76
2023/06/07 01:39:02;;;;;;;;;15.50;13.00;;;;;;;;1979073;28;2806516;-76
2023/06/07 01:40:14;;;;;;;;;16.00;14.50;;;;;;;;1983607;28;2804438;-76
2023/06/07 01:41:25;;;;;;;;;16.00;14.00;;;;;;;;1986258;28;2801313;-76
2023/06/07 01:42:36;;;;;;;;;18.00;15.00;;;;;;;;1983051;28;2819028;-77
2023/06/07 01:43:48;;;;;;;;;18.60;15.40;;;;;;;;1961131;28;3542921;-76
2023/06/07 01:45:02;;;;;;;;;18.60;14.80;;;;;;;;2012754;28;1835718;-76
2023/06/07 01:46:13;;;;;;;;;19.50;17.00;;;;;;;;1980969;28;2829425;-76
2023/06/07 01:47:24;;;;;;;;;18.00;15.00;;;;;;;;1961652;28;2820070;-76
2023/06/07 01:48:35;;;;;;;;;15.40;15.40;;;;;;;;1996470;28;2796089;-76
2023/06/07 01:49:46;;;;;;;;;17.50;15.50;;;;;;;;1983326;28;2823243;-77
2023/06/07 01:50:58;;;;;;;;;20.80;17.40;;;;;;;;1979469;28;3571035;-76
2023/06/07 01:52:10;;;;;;;;;21.00;16.80;;;;;;;;2008906;28;3549219;-76
2023/06/07 01:53:21;;;;;;;;;18.40;16.00;;;;;;;;2007222;28;3552352;-76
2023/06/07 01:54:34;;;;;;;;;17.00;16.80;;;;;;;;2012440;28;3556490;-76
2023/06/07 01:55:44;;;;;;;;;17.00;15.00;;;;;;;;1985304;28;2816898;-76
2023/06/07 01:57:00;;;;;;;;;14.00;12.00;;;;;;;;1982917;28;3526248;-76
2023/06/07 01:58:20;;;;;;;;;18.00;12.00;;;;;;;;1980329;28;2806867;-76
2023/06/07 01:59:31;;;;;;;;;18.00;16.33;;;;;;;;1957916;28;3555446;-76
2023/06/07 02:01:05;;;;;;;;;18.00;16.00;;;;;;;;2009375;28;3558528;-76
2023/06/07 02:02:35;;;;;;;;;15.00;15.00;;;;;;;;1978920;28;2798184;-76
2023/06/07 02:03:48;;;;;;;;;24.50;18.00;;;;;;;;1975418;28;2839837;-76
2023/06/07 02:05:02;;;;;;;;;22.00;18.50;;;;;;;;1955031;28;2831922;-76
2023/06/07 02:06:16;;;;;;;;;24.00;18.00;;;;;;;;1961916;28;2844067;-76
2023/06/07 02:07:28;;;;;;;;;17.50;17.00;;;;;;;;1961783;28;2822157;-76
2023/06/07 02:08:44;;;;;;;;;18.00;17.00;;;;;;;;1951123;28;3551302;-76
2023/06/07 02:09:57;;;;;;;;;16.33;16.33;;;;;;;;1976355;28;3557542;-76
2023/06/07 02:11:08;;;;;;;;;21.67;17.67;;;;;;;;1984283;28;3563778;-76
2023/06/07 02:12:20;;;;;;;;;26.60;22.00;;;;;;;;2003938;28;3586721;-76
2023/06/07 02:13:36;;;;;;;;;18.40;16.80;;;;;;;;1978847;28;3559568;-76
2023/06/07 02:14:51;;;;;;;;;21.50;16.00;;;;;;;;1985540;28;2831480;-75
2023/06/07 02:16:05;;;;;;;;;22.00;15.33;;;;;;;;1960134;28;3561644;-76
2023/06/07 02:17:15;;;;;;;;;16.00;15.00;;;;;;;;1985859;28;2818345;-75
2023/06/07 02:18:27;;;;;;;;;18.20;15.60;;;;;;;;1991516;28;3541273;-76
2023/06/07 02:19:42;;;;;;;;;21.40;18.60;;;;;;;;2004810;28;3563763;-76
2023/06/07 02:20:53;;;;;;;;;24.00;19.67;;;;;;;;1982460;28;2848138;-78
2023/06/07 02:22:05;;;;;;;;;21.00;17.50;;;;;;;;1987659;28;2833556;-78
2023/06/07 02:23:16;;;;;;;;;17.67;16.33;;;;;;;;1964444;28;2829461;-78
2023/06/07 02:24:28;;;;;;;;;18.33;15.67;;;;;;;;1974027;28;3553368;-77
2023/06/07 02:25:41;;;;;;;;;23.57;19.14;;;;;;;;1999628;28;3597107;-77
2023/06/07 02:26:57;;;;;;;;;24.40;19.20;;;;;;;;1984585;28;3569977;-79
2023/06/07 02:28:07;;;;;;;;;19.50;19.50;;;;;;;;1972483;28;2825294;-77
2023/06/07 02:29:20;;;;;;;;;21.40;19.60;;;;;;;;1977749;28;3568952;-78
2023/06/07 02:30:31;;;;;;;;;21.20;17.20;;;;;;;;1988324;28;3563246;-77
2023/06/07 02:31:42;;;;;;;;;25.00;18.40;;;;;;;;1985780;28;2846217;-78
2023/06/07 02:32:54;;;;;;;;;19.00;15.50;;;;;;;;1988437;28;2821092;-78
2023/06/07 02:34:05;;;;;;;;;20.50;18.50;;;;;;;;1986879;28;2829413;-78
2023/06/07 02:35:17;;;;;;;;;23.00;15.00;;;;;;;;1963329;28;2826408;-78
2023/06/07 02:36:33;;;;;;;;;22.00;18.00;;;;;;;;1957224;28;2833568;-78
2023/06/07 02:37:43;;;;;;;;;20.00;19.00;;;;;;;;1961156;28;2831536;-78
2023/06/07 02:38:56;;;;;;;;;21.57;17.86;;;;;;;;1978733;28;3565892;-78
2023/06/07 02:40:10;;;;;;;;;24.20;18.00;;;;;;;;1971090;28;2839943;-78
2023/06/07 02:41:21;;;;;;;;;21.50;20.50;;;;;;;;1984448;28;2832562;-78
2023/06/07 02:42:32;;;;;;;;;24.60;21.40;;;;;;;;1967273;28;3572096;-78
2023/06/07 02:43:44;;;;;;;;;24.20;19.40;;;;;;;;2005974;28;3571150;-78
2023/06/07 02:44:56;;;;;;;;;19.80;18.60;;;;;;;;2010430;28;3564908;-78
2023/06/07 02:46:08;;;;;;;;;19.80;18.80;;;;;;;;2009569;28;3568967;-78
2023/06/07 02:47:20;;;;;;;;;22.60;19.20;;;;;;;;1999222;28;3571066;-78
2023/06/07 02:48:32;;;;;;;;;22.40;18.60;;;;;;;;1978895;28;3579351;-78
2023/06/07 02:49:45;;;;;;;;;22.14;19.43;;;;;;;;1998575;28;3561738;-78
2023/06/07 02:50:57;;;;;;;;;23.80;20.60;;;;;;;;2001973;28;3581471;-78
2023/06/07 02:52:10;;;;;;;;;30.00;19.60;;;;;;;;2000657;28;3603337;-78
2023/06/07 02:53:20;;;;;;;;;22.50;20.00;;;;;;;;1962513;28;2844004;-78
2023/06/07 02:54:34;;;;;;;;;24.80;21.40;;;;;;;;1980576;28;3566875;-77
2023/06/07 02:55:45;;;;;;;;;24.50;20.00;;;;;;;;1959278;28;2843996;-77
2023/06/07 02:56:57;;;;;;;;;26.00;18.40;;;;;;;;1975164;28;3582524;-77
2023/06/07 02:58:08;;;;;;;;;23.00;20.40;;;;;;;;1953461;28;2838852;-77
2023/06/07 02:59:19;;;;;;;;;20.20;19.20;;;;;;;;1979087;28;3565838;-78
2023/06/07 03:00:31;;;;;;;;;26.80;19.40;;;;;;;;1984755;28;3585641;-77
2023/06/07 03:01:43;;;;;;;;;24.20;19.60;;;;;;;;1951632;28;3576234;-78
2023/06/07 03:02:55;;;;;;;;;25.80;20.60;;;;;;;;1967875;28;3581442;-77
2023/06/07 03:04:07;;;;;;;;;28.00;23.20;;;;;;;;1979297;28;3572096;-78
2023/06/07 03:05:18;;;;;;;;;27.40;23.00;;;;;;;;1961732;28;2838073;-77
2023/06/07 03:06:29;;;;;;;;;26.00;24.00;;;;;;;;1977764;28;2841908;-78
2023/06/07 03:07:41;;;;;;;;;25.67;20.00;;;;;;;;1976727;28;3577355;-77
2023/06/07 03:08:53;;;;;;;;;27.20;23.00;;;;;;;;1976561;28;3584624;-78
2023/06/07 03:10:05;;;;;;;;;22.60;20.00;;;;;;;;1969247;28;3569977;-77
2023/06/07 03:11:16;;;;;;;;;23.20;19.60;;;;;;;;1979075;28;3583550;-77
2023/06/07 03:12:28;;;;;;;;;23.40;18.80;;;;;;;;2013620;28;3581462;-77
2023/06/07 03:13:40;;;;;;;;;26.60;18.00;;;;;;;;1989138;28;3583940;-77
2023/06/07 03:14:51;;;;;;;;;25.80;20.80;;;;;;;;1993187;28;2848310;-77
2023/06/07 03:16:03;;;;;;;;;22.20;18.60;;;;;;;;1983501;28;3567901;-77
2023/06/07 03:17:14;;;;;;;;;22.20;20.40;;;;;;;;1980672;28;2833575;-78
2023/06/07 03:18:25;;;;;;;;;25.00;20.00;;;;;;;;1979234;28;2840848;-77
2023/06/07 03:19:37;;;;;;;;;23.00;21.00;;;;;;;;1977472;28;3581535;-77
2023/06/07 03:20:48;;;;;;;;;26.20;19.80;;;;;;;;1987101;28;2844050;-77
2023/06/07 03:22:00;;;;;;;;;24.00;20.33;;;;;;;;1983616;28;3565676;-78
2023/06/07 03:23:11;;;;;;;;;21.50;21.00;;;;;;;;1960080;28;2831870;-78
2023/06/07 03:24:23;;;;;;;;;24.60;20.00;;;;;;;;1978835;28;3579384;-78
2023/06/07 03:25:35;;;;;;;;;21.20;18.20;;;;;;;;1967957;28;3561656;-78
2023/06/07 03:26:46;;;;;;;;;27.80;25.00;;;;;;;;1996622;28;3580488;-77
2023/06/07 03:27:59;;;;;;;;;25.80;21.80;;;;;;;;1983689;28;3573122;-77
2023/06/07 03:29:10;;;;;;;;;26.20;20.20;;;;;;;;1995132;28;3587741;-77
2023/06/07 03:30:23;;;;;;;;;17.20;15.80;;;;;;;;1966444;28;3560626;-78
2023/06/07 03:31:35;;;;;;;;;20.00;19.33;;;;;;;;1974896;28;3560649;-78
2023/06/07 03:32:46;;;;;;;;;23.67;19.00;;;;;;;;1954434;28;3573178;-78
2023/06/07 03:33:58;;;;;;;;;25.80;23.40;;;;;;;;1969580;28;3575206;-78
2023/06/07 03:35:10;;;;;;;;;24.40;22.80;;;;;;;;1973010;28;3575229;-78
2023/06/07 03:36:25;;;;;;;;;21.60;21.20;;;;;;;;1989000;28;3573229;-78
2023/06/07 03:37:36;;;;;;;;;26.00;21.00;;;;;;;;1955808;28;2848138;-78
2023/06/07 03:38:48;;;;;;;;;19.80;16.40;;;;;;;;1982905;28;3564825;-78
2023/06/07 03:40:00;;;;;;;;;22.40;19.80;;;;;;;;2007442;28;3570004;-77
2023/06/07 03:41:11;;;;;;;;;24.40;20.80;;;;;;;;1976768;28;3562721;-78
2023/06/07 03:42:23;;;;;;;;;29.40;22.60;;;;;;;;2001531;28;3582514;-78
2023/06/07 03:43:35;;;;;;;;;22.80;18.80;;;;;;;;1977418;28;3571026;-78
2023/06/07 03:44:47;;;;;;;;;25.80;22.00;;;;;;;;1983850;28;3582532;-77
2023/06/07 03:45:59;;;;;;;;;27.60;21.20;;;;;;;;1971359;28;3576258;-77
2023/06/07 03:47:11;;;;;;;;;24.00;21.80;;;;;;;;1979630;28;3580429;-78
2023/06/07 03:48:24;;;;;;;;;23.60;21.40;;;;;;;;1980057;28;3573199;-77
2023/06/07 03:49:35;;;;;;;;;28.00;22.67;;;;;;;;1945100;28;3583597;-78
2023/06/07 03:50:46;;;;;;;;;26.20;23.40;;;;;;;;1961519;28;2845505;-78
2023/06/07 03:51:57;;;;;;;;;26.67;21.67;;;;;;;;1982938;28;3598121;-77
2023/06/07 03:53:08;;;;;;;;;23.40;21.00;;;;;;;;1959241;28;2835727;-78
2023/06/07 03:54:19;;;;;;;;;27.00;25.00;;;;;;;;1978515;28;2845041;-78
2023/06/07 03:55:31;;;;;;;;;27.40;21.80;;;;;;;;1955688;28;3578720;-78
2023/06/07 03:56:44;;;;;;;;;26.57;23.43;;;;;;;;1971942;28;3581463;-78
2023/06/07 03:57:54;;;;;;;;;21.60;19.40;;;;;;;;1970541;28;2830774;-77
2023/06/07 03:59:06;;;;;;;;;21.67;19.00;;;;;;;;1983541;28;3559577;-77
2023/06/07 04:00:18;;;;;;;;;22.80;21.80;;;;;;;;1996989;28;3567965;-78
2023/06/07 04:01:29;;;;;;;;;25.80;21.20;;;;;;;;1984309;28;2843023;-78
2023/06/07 04:02:41;;;;;;;;;22.40;18.80;;;;;;;;2008264;28;3559615;-77
2023/06/07 04:03:53;;;;;;;;;26.00;22.40;;;;;;;;1995623;28;3575200;-77
2023/06/07 04:05:05;;;;;;;;;30.40;23.60;;;;;;;;1979509;28;3584647;-77
2023/06/07 04:06:20;;;;;;;;;20.71;19.86;;;;;;;;1975406;28;3573215;-78
2023/06/07 04:07:32;;;;;;;;;24.33;21.00;;;;;;;;1960474;28;3575260;-78
2023/06/07 04:08:43;;;;;;;;;25.80;20.40;;;;;;;;1969419;28;3581435;-77
2023/06/07 04:09:55;;;;;;;;;22.60;22.40;;;;;;;;1983917;28;3573133;-79
2023/06/07 04:11:07;;;;;;;;;22.60;20.20;;;;;;;;1980019;28;3565819;-78
2023/06/07 04:12:18;;;;;;;;;25.60;22.60;;;;;;;;1960974;28;2846254;-78
2023/06/07 04:13:30;;;;;;;;;25.60;23.00;;;;;;;;1996566;28;3568943;-78
2023/06/07 04:14:42;;;;;;;;;27.40;21.40;;;;;;;;2006076;28;3581476;-78
2023/06/07 04:15:54;;;;;;;;;25.20;23.80;;;;;;;;1988048;28;3579380;-78
2023/06/07 04:17:06;;;;;;;;;25.20;20.40;;;;;;;;1981323;28;3583514;-79
2023/06/07 04:18:18;;;;;;;;;26.00;24.20;;;;;;;;1981276;28;3559638;-78
2023/06/07 04:19:28;;;;;;;;;25.20;23.00;;;;;;;;1984606;28;2840945;-78
2023/06/07 04:20:41;;;;;;;;;26.80;20.60;;;;;;;;1974843;28;3576254;-78
2023/06/07 04:21:51;;;;;;;;;27.50;22.00;;;;;;;;1975980;28;2847681;-78
2023/06/07 04:23:03;;;;;;;;;23.50;17.50;;;;;;;;1957563;28;2842931;-78
2023/06/07 04:24:15;;;;;;;;;27.60;22.40;;;;;;;;1990244;28;3585719;-78
2023/06/07 04:25:31;;;;;;;;;21.80;21.20;;;;;;;;1968334;28;3575198;-78
2023/06/07 04:26:44;;;;;;;;;22.67;20.67;;;;;;;;1960124;28;3575228;-77
2023/06/07 04:27:59;;;;;;;;;26.00;22.00;;;;;;;;1961102;28;2850257;-77
2023/06/07 04:29:09;;;;;;;;;22.50;19.50;;;;;;;;1963618;28;2837813;-77
2023/06/07 04:30:20;;;;;;;;;22.20;21.80;;;;;;;;1954918;28;2834060;-78
2023/06/07 04:31:33;;;;;;;;;25.40;24.00;;;;;;;;1973907;28;3581499;-77
2023/06/07 04:32:44;;;;;;;;;25.33;21.33;;;;;;;;1955635;28;3572119;-78
2023/06/07 04:33:57;;;;;;;;;23.20;21.20;;;;;;;;1980031;28;3572072;-79
2023/06/07 04:35:08;;;;;;;;;28.00;22.00;;;;;;;;1986265;28;2846425;-78
2023/06/07 04:36:20;;;;;;;;;25.60;22.20;;;;;;;;1968480;28;3596046;-78
2023/06/07 04:37:32;;;;;;;;;33.80;27.20;;;;;;;;1990063;28;3581479;-78
2023/06/07 04:38:46;;;;;;;;;26.00;23.67;;;;;;;;1965967;28;3580445;-78
2023/06/07 04:39:56;;;;;;;;;24.00;18.00;;;;;;;;1956668;28;2834668;-78
2023/06/07 04:41:08;;;;;;;;;27.40;22.80;;;;;;;;1998545;28;3582921;-79
2023/06/07 04:42:20;;;;;;;;;26.80;23.20;;;;;;;;1988300;28;3572111;-80
2023/06/07 04:43:36;;;;;;;;;26.20;22.60;;;;;;;;1963081;28;3571146;-80
2023/06/07 04:44:47;;;;;;;;;23.50;21.50;;;;;;;;1955098;28;2850218;-80
2023/06/07 04:46:01;;;;;;;;;23.40;20.40;;;;;;;;1967614;28;3557508;-79
2023/06/07 04:47:13;;;;;;;;;23.33;20.00;;;;;;;;1981429;28;2835666;-78
2023/06/07 04:48:28;;;;;;;;;31.67;26.33;;;;;;;;1983090;28;3594972;-79
2023/06/07 04:49:40;;;;;;;;;31.00;24.00;;;;;;;;1953643;28;2843995;-79
2023/06/07 04:50:51;;;;;;;;;30.00;26.00;;;;;;;;1972912;28;2842955;-87
2023/06/07 04:52:05;;;;;;;;;27.33;22.00;;;;;;;;1966869;28;3583621;-86
2023/06/07 04:53:19;;;;;;;;;33.33;26.67;;;;;;;;1952235;28;3583648;-87
2023/06/07 04:54:31;;;;;;;;;29.00;24.00;;;;;;;;1939348;28;2851358;-88
2023/06/07 04:55:42;;;;;;;;;27.33;21.00;;;;;;;;1944016;28;3585680;-87
2023/06/07 04:56:53;;;;;;;;;32.50;26.00;;;;;;;;1960021;28;2506480;-87
2023/06/07 04:58:07;;;;;;;;;31.75;25.13;;;;;;;;1965564;28;3607539;-87
2023/06/07 04:59:18;;;;;;;;;29.50;22.00;;;;;;;;1976659;28;2857498;-87
2023/06/07 05:00:30;;;;;;;;;27.00;23.00;;;;;;;;1954080;28;2835815;-87
2023/06/07 05:01:43;;;;;;;;;28.33;24.00;;;;;;;;1956250;28;2849322;-87
2023/06/07 05:02:53;;;;;;;;;35.50;26.50;;;;;;;;1981970;28;2860710;-87
2023/06/07 05:04:05;;;;;;;;;33.20;25.60;;;;;;;;1977600;28;3587736;-89
2023/06/07 05:05:17;;;;;;;;;27.00;23.40;;;;;;;;1980229;28;3578318;-87
2023/06/07 05:06:30;;;;;;;;;27.33;22.00;;;;;;;;1961356;28;3581499;-87
2023/06/07 05:07:42;;;;;;;;;24.33;21.00;;;;;;;;1945748;28;3566276;-87
2023/06/07 05:08:55;;;;;;;;;30.88;26.13;;;;;;;;1966885;28;3598601;-87
2023/06/07 05:10:07;;;;;;;;;29.00;20.33;;;;;;;;1978781;28;3587768;-86
2023/06/07 05:11:18;;;;;;;;;24.33;22.00;;;;;;;;1998236;28;3580839;-87
2023/06/07 05:12:32;;;;;;;;;35.00;28.38;;;;;;;;1973749;28;3595004;-86
2023/06/07 05:13:43;;;;;;;;;29.50;26.00;;;;;;;;1976066;28;2838815;-87
2023/06/07 05:14:54;;;;;;;;;29.60;28.00;;;;;;;;1980484;28;3583537;-87
2023/06/07 05:16:15;;;;;;;;;28.40;21.20;;;;;;;;1995827;28;3585675;-86
2023/06/07 05:17:28;;;;;;;;;30.00;25.00;;;;;;;;1941204;28;2846098;-87
2023/06/07 05:18:39;;;;;;;;;30.00;23.00;;;;;;;;1941132;28;2851380;-88
2023/06/07 05:19:51;;;;;;;;;35.67;28.00;;;;;;;;1954569;28;3607527;-87
2023/06/07 05:21:02;;;;;;;;;27.00;21.80;;;;;;;;1981487;28;3587748;-87
2023/06/07 05:22:14;;;;;;;;;26.40;20.80;;;;;;;;1987867;28;3580488;-89
2023/06/07 05:23:27;;;;;;;;;29.00;26.86;;;;;;;;1978031;28;3585638;-88
2023/06/07 05:24:39;;;;;;;;;27.20;25.20;;;;;;;;1984012;28;3579374;-86
2023/06/07 05:25:51;;;;;;;;;28.80;27.60;;;;;;;;2000232;28;3589816;-87
2023/06/07 05:27:05;;;;;;;;;26.80;23.60;;;;;;;;1985670;28;3573141;-86
2023/06/07 05:28:17;;;;;;;;;34.33;25.67;;;;;;;;1960201;28;3610974;-87
2023/06/07 05:29:29;;;;;;;;;28.80;24.80;;;;;;;;1960119;28;3580393;-86
2023/06/07 05:30:41;;;;;;;;;34.80;27.00;;;;;;;;1977253;28;3604413;-86
2023/06/07 05:31:53;;;;;;;;;32.20;26.40;;;;;;;;1981135;28;3607587;-86
2023/06/07 05:33:06;;;;;;;;;34.13;27.25;;;;;;;;1979563;28;3593955;-86
2023/06/07 05:34:18;;;;;;;;;30.67;26.00;;;;;;;;1973340;28;3586729;-86
2023/06/07 05:35:30;;;;;;;;;31.00;24.00;;;;;;;;1976436;28;3590344;-87
2023/06/07 05:36:43;;;;;;;;;31.00;25.75;;;;;;;;1973762;28;3588758;-87
2023/06/07 05:37:55;;;;;;;;;29.67;26.33;;;;;;;;1967290;28;3583620;-87
2023/06/07 05:39:07;;;;;;;;;30.20;25.40;;;;;;;;1965342;28;3599181;-86
2023/06/07 05:40:19;;;;;;;;;31.60;26.80;;;;;;;;1970421;28;3593967;-86
2023/06/07 05:41:30;;;;;;;;;25.80;25.20;;;;;;;;1970443;28;3577390;-87
2023/06/07 05:42:42;;;;;;;;;30.00;24.40;;;;;;;;1977733;28;3587044;-86
2023/06/07 05:43:54;;;;;;;;;21.80;20.40;;;;;;;;1989821;28;3577308;-87
2023/06/07 05:45:07;;;;;;;;;29.20;25.00;;;;;;;;1986521;28;3600263;-88
2023/06/07 05:46:18;;;;;;;;;27.20;23.80;;;;;;;;1958952;28;3589799;-84
2023/06/07 05:47:30;;;;;;;;;34.60;28.00;;;;;;;;1980672;28;3610651;-87
2023/06/07 05:48:42;;;;;;;;;32.33;27.00;;;;;;;;1973315;28;3607519;-87
2023/06/07 05:49:53;;;;;;;;;38.00;30.20;;;;;;;;1967611;28;2880552;-87
2023/06/07 05:51:04;;;;;;;;;34.50;27.50;;;;;;;;1984731;28;2869054;-87
2023/06/07 05:52:16;;;;;;;;;33.80;26.40;;;;;;;;1975227;28;3606816;-86
2023/06/07 05:53:28;;;;;;;;;36.40;28.80;;;;;;;;1977102;28;3623135;-86
2023/06/07 05:54:39;;;;;;;;;29.00;28.00;;;;;;;;1961309;28;2842038;-86
2023/06/07 05:55:50;;;;;;;;;28.67;27.67;;;;;;;;1968889;28;2844049;-86
2023/06/07 05:57:01;;;;;;;;;30.00;27.00;;;;;;;;1977681;28;2856547;-86
2023/06/07 05:58:13;;;;;;;;;24.00;23.00;;;;;;;;1978103;28;3581522;-86
2023/06/07 05:59:25;;;;;;;;;26.20;20.40;;;;;;;;1971438;28;3577308;-89
2023/06/07 06:00:36;;;;;;;;;29.60;22.60;;;;;;;;1958592;28;2839564;-86
2023/06/07 06:01:48;;;;;;;;;27.20;22.80;;;;;;;;1984595;28;3593985;-86
2023/06/07 06:03:01;;;;;;;;;31.60;26.40;;;;;;;;1984333;28;3591159;-86
2023/06/07 06:04:12;;;;;;;;;32.50;29.50;;;;;;;;1953449;28;2853440;-88
2023/06/07 06:05:27;;;;;;;;;32.50;26.50;;;;;;;;1943478;28;2853883;-84
2023/06/07 06:06:38;;;;;;;;;29.67;27.00;;;;;;;;1938582;28;3589808;-84
2023/06/07 06:07:51;;;;;;;;;30.20;27.60;;;;;;;;1979683;28;3588742;-85
2023/06/07 06:09:02;;;;;;;;;31.00;27.00;;;;;;;;1962554;28;2856663;-84
2023/06/07 06:10:14;;;;;;;;;38.33;29.00;;;;;;;;1958191;28;2876471;-84
2023/06/07 06:11:25;;;;;;;;;32.67;28.67;;;;;;;;1984574;28;2865242;-84
2023/06/07 06:12:35;;;;;;;;;31.50;29.00;;;;;;;;1975435;28;2850217;-83
2023/06/07 06:13:48;;;;;;;;;31.20;27.00;;;;;;;;1980463;28;3593965;-84
2023/06/07 06:14:59;;;;;;;;;31.00;26.00;;;;;;;;1964231;28;2860639;-84
2023/06/07 06:16:11;;;;;;;;;34.00;28.67;;;;;;;;1959248;28;3605523;-84
2023/06/07 06:17:25;;;;;;;;;32.25;29.25;;;;;;;;1975662;28;3613177;-84
2023/06/07 06:18:36;;;;;;;;;29.80;26.60;;;;;;;;1978295;28;3594984;-84
2023/06/07 06:19:48;;;;;;;;;29.40;26.00;;;;;;;;1988170;28;3586647;-84
2023/06/07 06:21:00;;;;;;;;;32.60;30.20;;;;;;;;1984293;28;3601293;-84
2023/06/07 06:22:12;;;;;;;;;32.80;26.00;;;;;;;;1985663;28;3583569;-84
2023/06/07 06:23:25;;;;;;;;;33.40;28.20;;;;;;;;1987027;28;3605451;-84
2023/06/07 06:24:36;;;;;;;;;33.00;29.00;;;;;;;;1975478;28;3598112;-84
2023/06/07 06:25:50;;;;;;;;;34.50;28.25;;;;;;;;1976359;28;3615885;-85
2023/06/07 06:27:01;;;;;;;;;28.50;26.00;;;;;;;;1970840;28;2853395;-84
2023/06/07 06:28:13;;;;;;;;;36.20;27.20;;;;;;;;1970363;28;3592931;-84
2023/06/07 06:29:24;;;;;;;;;29.80;27.20;;;;;;;;2002921;28;3578372;-84
2023/06/07 06:30:37;;;;;;;;;37.20;29.00;;;;;;;;1988227;28;3610973;-84
2023/06/07 06:31:48;;;;;;;;;31.00;26.60;;;;;;;;1987857;28;3588761;-84
2023/06/07 06:33:02;;;;;;;;;31.00;26.13;;;;;;;;1981182;28;3611689;-85
2023/06/07 06:34:15;;;;;;;;;28.80;25.40;;;;;;;;1982516;28;3587743;-84
2023/06/07 06:35:28;;;;;;;;;27.60;24.20;;;;;;;;1970592;28;3567906;-84
2023/06/07 06:36:38;;;;;;;;;32.50;25.50;;;;;;;;1980420;28;2868968;-84
2023/06/07 06:37:50;;;;;;;;;31.80;24.80;;;;;;;;1988434;28;3591111;-85
2023/06/07 06:39:03;;;;;;;;;33.20;26.20;;;;;;;;1987989;28;3598778;-84
2023/06/07 06:40:16;;;;;;;;;28.00;25.00;;;;;;;;1962172;28;3580467;-84
2023/06/07 06:41:26;;;;;;;;;37.00;28.00;;;;;;;;1956536;28;2871129;-84
2023/06/07 06:42:37;;;;;;;;;29.00;26.00;;;;;;;;1963348;28;2843047;-84
2023/06/07 06:43:49;;;;;;;;;36.00;29.20;;;;;;;;1990654;28;3609563;-85
2023/06/07 06:45:01;;;;;;;;;28.20;24.40;;;;;;;;1983863;28;3590876;-84
2023/06/07 06:46:13;;;;;;;;;29.00;25.20;;;;;;;;1977182;28;3582507;-84
2023/06/07 06:47:25;;;;;;;;;31.80;28.40;;;;;;;;1987292;28;3611692;-84